Laukaa, Finland
Kieli:  Suomi
CurCond
Päivitetty19/07/2019 13:40 
 

Lähistön Lentoasemien Säätiloja:

 

EFJY - Jyvaskyla (mil/C,) Finland
Etäisyys Sääasemalta: PKo 21km
Päivitetty: 19/07/2019 13:20
Selkeätä
Selkeätä
 Tuulen suunta PLu
Tuuli: PLu 20 km/h, Puuskatuuli: 41 km/h
Lämpötila: 21°C
Kastepiste: 9°C
Ilmankosteus: 46%
Ilmanpaine: 1011 hPa
Yhteenveto: Selkeätä
Näkyvyys: Enemmän Kuin 10 km
2019/07/19 10:20 EFJY 191020Z AUTO 34011G22KT 300V020 CAVOK 21/09 Q1011
EFHA - Halli (fin-Afb), Finland
Etäisyys Sääasemalta: Lo 56km
Päivitetty: 19/07/2019 13:20
Selkeätä
Selkeätä
 Tuulen suunta P
Tuuli: P 22 km/h
Lämpötila: 21°C
Kastepiste: 8°C
Ilmankosteus: 43%
Ilmanpaine: 1011 hPa
Yhteenveto: Selkeätä
Näkyvyys: Enemmän Kuin 10 km
2019/07/19 10:20 EFHA 191020Z AUTO 01012KT CAVOK 21/08 Q1011
EFMI - Mikkeli, Finland
Etäisyys Sääasemalta: IKa 105km
Päivitetty: 19/07/2019 13:20
Pilvistä
Pilvistä
 Tuulen suunta Ko
Tuuli: Ko 4 km/h
Lämpötila: 16°C
Kastepiste: 16°C
Ilmankosteus: 100%
Ilmanpaine: 1010 hPa
Pilvisyys: Pilvistä
Näkyvyys: 10 km
Pilvisyystiedot: Pilvistä 610 m
2019/07/19 10:20 EFMI 191020Z AUTO 04002KT 9999 OVC020 16/16 Q1010
 
EFTP - Tampere/Pirkkala, Finland
Etäisyys Sääasemalta: Lo 135km
Päivitetty: 19/07/2019 13:20
Selkeätä
Selkeätä
 Tuulen suunta P
Tuuli: P 17 km/h
Lämpötila: 21°C
Kastepiste: 9°C
Ilmankosteus: 46%
Ilmanpaine: 1012 hPa
Yhteenveto: Selkeätä
Näkyvyys: Enemmän Kuin 10 km
2019/07/19 10:20 EFTP 191020Z AUTO 01009KT CAVOK 21/09 Q1012
EFKU - Kuopio (mil/Civ), Finland
Etäisyys Sääasemalta: Ko 146km
Päivitetty: 19/07/2019 13:20
Enimmäkseen pilvistä
Enimmäkseen pilvistä
 Tuulen suunta PLu
Tuuli: PLu 17 km/h
Lämpötila: 20°C
Kastepiste: 12°C
Ilmankosteus: 60%
Ilmanpaine: 1010 hPa
Pilvisyys: Enimmäkseen pilvistä
Näkyvyys: 10 km
Pilvisyystiedot: Puolipilvistä 792 m
Enimmäkseen pilvistä 3597 m
2019/07/19 10:20 EFKU 191020Z AUTO 33009KT 9999 SCT026 BKN118 20/12 Q1010
EFSI - Seinajoki-Ilmajo, Finland
Etäisyys Sääasemalta: LLu 149km
Päivitetty: 19/07/2019 13:20
Joitain Pilviä
Joitain Pilviä
 Tuulen suunta varies
Tuuli: varies 11 km/h
Lämpötila: 21°C
Kastepiste: 10°C
Ilmankosteus: 50%
Ilmanpaine: 1012 hPa
Pilvisyys: Joitain Pilviä
Näkyvyys: 10 km
Pilvisyystiedot: Joitain Pilviä 1402 m
2019/07/19 10:20 EFSI 191020Z AUTO VRB06KT 9999 FEW046 21/10 Q1012